Time;durP1;ratioP1;P1;durP2;ratioP2;P2;SDS_P1;SDS_P2;PMS_P1;PMS_P2;Temp;Humidity;BMP_temperature;BMP_pressure;BME280_temperature;BME280_humidity;BME280_pressure;Samples;Min_cycle;Max_cycle;Signal;HPM_P1;HPM_P2
2022/03/02 00:00:12;;;;;;;56.38;30.20;;;6.60;99.90;;;;;;4913155;29;20123;-73
2022/03/02 00:02:37;;;;;;;57.50;31.20;;;6.60;99.90;;;;;;4913086;29;20080;-73
2022/03/02 00:05:04;;;;;;;56.22;31.50;;;6.60;99.90;;;;;;4912973;29;20028;-73
2022/03/02 00:07:29;;;;;;;55.75;30.45;;;6.60;99.90;;;;;;4913057;29;20036;-73
2022/03/02 00:09:55;;;;;;;56.35;30.73;;;6.60;99.90;;;;;;4913385;29;20047;-73
2022/03/02 00:12:20;;;;;;;56.95;31.13;;;6.60;99.90;;;;;;4912972;29;20067;-73
2022/03/02 00:14:46;;;;;;;56.30;31.33;;;6.60;99.90;;;;;;4913225;29;20177;-73
2022/03/02 00:17:11;;;;;;;54.08;30.77;;;6.60;99.90;;;;;;4913053;29;20107;-73
2022/03/02 00:19:37;;;;;;;58.85;31.38;;;6.60;99.90;;;;;;4913268;29;20032;-73
2022/03/02 00:22:04;;;;;;;60.22;32.70;;;6.60;99.90;;;;;;4913176;29;20123;-74
2022/03/02 00:24:30;;;;;;;54.42;31.42;;;6.60;99.90;;;;;;4913361;29;20124;-74
2022/03/02 00:26:56;;;;;;;56.50;30.45;;;6.60;99.90;;;;;;4912601;29;20111;-73
2022/03/02 00:29:22;;;;;;;54.10;30.60;;;6.60;99.90;;;;;;4913189;29;20028;-73
2022/03/02 00:31:47;;;;;;;58.13;32.15;;;6.60;99.90;;;;;;4912695;29;20084;-73
2022/03/02 00:34:13;;;;;;;52.10;30.13;;;6.60;99.90;;;;;;4912860;29;20487;-73
2022/03/02 00:36:38;;;;;;;54.17;31.25;;;6.60;99.90;;;;;;4912675;29;20123;-73
2022/03/02 00:39:04;;;;;;;55.63;31.35;;;6.60;99.90;;;;;;4912892;29;20051;-73
2022/03/02 00:41:30;;;;;;;55.53;30.50;;;6.60;99.90;;;;;;4916667;29;20025;-73
2022/03/02 00:43:55;;;;;;;55.20;31.27;;;6.60;99.90;;;;;;4916764;29;20331;-73
2022/03/02 00:46:26;;;;;;;55.28;32.00;;;6.60;99.90;;;;;;4916662;29;20380;-73
2022/03/02 00:48:52;;;;;;;56.85;31.73;;;6.50;99.90;;;;;;4916588;29;20499;-73
2022/03/02 00:51:18;;;;;;;55.00;30.65;;;6.60;99.90;;;;;;4916518;29;20028;-73
2022/03/02 00:53:43;;;;;;;53.75;29.77;;;6.60;99.90;;;;;;4916585;29;20232;-73
2022/03/02 00:56:09;;;;;;;56.78;31.27;;;6.50;99.90;;;;;;4916299;29;20032;-73
2022/03/02 00:58:35;;;;;;;54.13;31.15;;;6.60;99.90;;;;;;4916276;29;20036;-74
2022/03/02 01:01:01;;;;;;;54.47;30.88;;;6.60;99.90;;;;;;4916329;29;20382;-73
2022/03/02 01:03:26;;;;;;;57.72;31.83;;;6.60;99.90;;;;;;4916229;29;20111;-73
2022/03/02 01:05:52;;;;;;;57.05;31.35;;;6.50;99.90;;;;;;4916358;29;20020;-74
2022/03/02 01:08:17;;;;;;;58.45;33.40;;;6.50;99.90;;;;;;4916002;29;20031;-74
2022/03/02 01:10:43;;;;;;;57.50;32.75;;;6.50;99.90;;;;;;4916124;29;20039;-74
2022/03/02 01:13:09;;;;;;;63.08;33.75;;;6.50;99.90;;;;;;4916219;29;20036;-73
2022/03/02 01:15:34;;;;;;;59.28;33.50;;;6.50;99.90;;;;;;4916039;29;20398;-74
2022/03/02 01:18:00;;;;;;;61.35;33.78;;;6.50;99.90;;;;;;4915989;29;20170;-72
2022/03/02 01:20:26;;;;;;;58.00;33.25;;;6.50;99.90;;;;;;4916045;29;20047;-74
2022/03/02 01:22:52;;;;;;;62.03;32.88;;;6.50;99.90;;;;;;4915853;29;20121;-72
2022/03/02 01:25:17;;;;;;;64.53;34.13;;;6.50;99.90;;;;;;4916360;29;20024;-72
2022/03/02 01:27:43;;;;;;;62.38;34.05;;;6.50;99.90;;;;;;4914735;29;20513;-72
2022/03/02 01:30:09;;;;;;;61.08;33.00;;;6.50;99.90;;;;;;4915621;29;20051;-72
2022/03/02 01:32:34;;;;;;;59.42;33.63;;;6.50;99.90;;;;;;4914663;29;20032;-72
2022/03/02 01:35:00;;;;;;;63.72;34.45;;;6.50;99.90;;;;;;4915733;29;20055;-72
2022/03/02 01:37:25;;;;;;;61.65;33.85;;;6.50;99.90;;;;;;4915647;29;20346;-72
2022/03/02 01:39:51;;;;;;;60.33;34.45;;;6.50;99.90;;;;;;4913986;29;20386;-72
2022/03/02 01:42:16;;;;;;;63.22;35.00;;;6.50;99.90;;;;;;4915460;29;20028;-72
2022/03/02 01:44:42;;;;;;;59.40;33.55;;;6.50;99.90;;;;;;4915421;29;20046;-72
2022/03/02 01:47:08;;;;;;;59.55;32.75;;;6.50;99.90;;;;;;4916082;29;20166;-72
2022/03/02 01:49:34;;;;;;;58.28;33.10;;;6.50;99.90;;;;;;4915490;29;20036;-72
2022/03/02 01:52:00;;;;;;;57.17;32.83;;;6.50;99.90;;;;;;4914935;29;20074;-72
2022/03/02 01:54:26;;;;;;;60.67;31.50;;;6.50;99.90;;;;;;4914936;29;20097;-72
2022/03/02 01:56:52;;;;;;;54.53;31.10;;;6.40;99.90;;;;;;4916159;29;20366;-72
2022/03/02 01:59:17;;;;;;;56.10;31.65;;;6.40;99.90;;;;;;4915256;29;20063;-72
2022/03/02 02:01:43;;;;;;;56.80;31.80;;;6.40;99.90;;;;;;4915168;29;20035;-72
2022/03/02 02:04:10;;;;;;;59.15;32.55;;;6.40;99.90;;;;;;4915236;29;20035;-72
2022/03/02 02:06:35;;;;;;;58.35;31.92;;;6.40;99.90;;;;;;4915239;29;20047;-72
2022/03/02 02:09:04;;;;;;;56.45;30.95;;;6.40;99.90;;;;;;4914861;29;20115;-72
2022/03/02 02:11:31;;;;;;;56.67;32.03;;;6.40;99.90;;;;;;4915221;29;20091;-74
2022/03/02 02:13:57;;;;;;;57.90;32.72;;;6.40;99.90;;;;;;4914835;29;20100;-72
2022/03/02 02:16:23;;;;;;;58.28;33.08;;;6.30;99.90;;;;;;4915160;29;20032;-72
2022/03/02 02:18:54;;;;;;;59.15;33.75;;;6.30;99.90;;;;;;4913390;29;20036;-72
2022/03/02 02:21:20;;;;;;;54.78;32.05;;;6.30;99.90;;;;;;4914376;29;20573;-72
2022/03/02 02:23:46;;;;;;;59.80;32.75;;;6.30;99.90;;;;;;4915094;29;20046;-72
2022/03/02 02:26:12;;;;;;;57.25;32.00;;;6.30;99.90;;;;;;4914671;29;20393;-71
2022/03/02 02:28:37;;;;;;;56.47;31.67;;;6.30;99.90;;;;;;4914970;29;20345;-72
2022/03/02 02:31:04;;;;;;;60.83;32.58;;;6.30;99.90;;;;;;4915051;29;20470;-71
2022/03/02 02:33:30;;;;;;;57.00;32.70;;;6.20;99.90;;;;;;4914831;29;20103;-72
2022/03/02 02:35:55;;;;;;;54.42;30.42;;;6.20;99.90;;;;;;4914575;29;20024;-72
2022/03/02 02:38:21;;;;;;;58.78;32.30;;;6.20;99.90;;;;;;4913395;29;20553;-72
2022/03/02 02:40:51;;;;;;;55.35;31.98;;;6.20;99.90;;;;;;4914660;29;20020;-72
2022/03/02 02:43:19;;;;;;;54.42;31.17;;;6.20;99.90;;;;;;4914736;29;20036;-72
2022/03/02 02:45:45;;;;;;;55.63;31.27;;;6.20;99.90;;;;;;4914410;29;20159;-72
2022/03/02 02:48:11;;;;;;;58.65;31.35;;;6.20;99.90;;;;;;4914626;29;20083;-72
2022/03/02 02:50:37;;;;;;;57.45;31.73;;;6.30;99.90;;;;;;4914827;29;20426;-72
2022/03/02 02:53:08;;;;;;;54.75;30.83;;;6.20;99.90;;;;;;4914385;29;20059;-72
2022/03/02 02:55:35;;;;;;;54.78;31.05;;;6.20;99.90;;;;;;4914656;29;20067;-72
2022/03/02 02:58:01;;;;;;;57.40;31.50;;;6.20;99.90;;;;;;4914599;29;20040;-72
2022/03/02 03:00:29;;;;;;;54.35;30.27;;;6.30;99.90;;;;;;4914050;29;20084;-72
2022/03/02 03:02:56;;;;;;;59.72;32.88;;;6.30;99.90;;;;;;4914026;29;20055;-72
2022/03/02 03:05:25;;;;;;;56.90;31.00;;;6.20;99.90;;;;;;4912477;29;20210;-72
2022/03/02 03:07:51;;;;;;;54.67;31.38;;;6.30;99.90;;;;;;4914224;29;20486;-72
2022/03/02 03:10:18;;;;;;;52.38;30.92;;;6.20;99.90;;;;;;4914363;29;20104;-72
2022/03/02 03:12:45;;;;;;;56.53;31.45;;;6.20;99.90;;;;;;4913960;29;20096;-72
2022/03/02 03:15:12;;;;;;;58.38;32.08;;;6.30;99.90;;;;;;4914027;29;20031;-72
2022/03/02 03:17:39;;;;;;;54.85;31.85;;;6.30;99.90;;;;;;4913770;29;20054;-72
2022/03/02 03:20:09;;;;;;;56.25;32.05;;;6.20;99.90;;;;;;4913826;29;20135;-72
2022/03/02 03:22:35;;;;;;;59.75;32.88;;;6.30;99.90;;;;;;4913945;29;20056;-71
2022/03/02 03:25:02;;;;;;;55.03;32.28;;;6.30;99.90;;;;;;4913771;29;20379;-72
2022/03/02 03:27:28;;;;;;;56.05;30.90;;;6.30;99.90;;;;;;4913852;29;20028;-72
2022/03/02 03:29:53;;;;;;;58.63;33.17;;;6.30;99.90;;;;;;4913744;29;20032;-72
2022/03/02 03:32:19;;;;;;;61.15;31.90;;;6.30;99.90;;;;;;4912354;29;20031;-72
2022/03/02 03:34:44;;;;;;;54.38;31.15;;;6.30;99.90;;;;;;4913639;29;20501;-71
2022/03/02 03:37:10;;;;;;;58.13;32.20;;;6.20;99.90;;;;;;4913414;29;20339;-72
2022/03/02 03:39:36;;;;;;;55.65;31.25;;;6.30;99.90;;;;;;4913623;29;20032;-72
2022/03/02 03:42:02;;;;;;;56.83;31.83;;;6.30;99.90;;;;;;4912036;29;20027;-72
2022/03/02 03:44:27;;;;;;;57.20;31.27;;;6.30;99.90;;;;;;4911997;29;20024;-72
2022/03/02 03:46:53;;;;;;;57.00;31.63;;;6.30;99.90;;;;;;4913413;29;20626;-72
2022/03/02 03:49:19;;;;;;;55.50;31.20;;;6.30;99.90;;;;;;4913373;29;20032;-71
2022/03/02 03:51:45;;;;;;;58.08;31.58;;;6.30;99.90;;;;;;4912557;29;20422;-71
2022/03/02 03:54:10;;;;;;;56.65;32.45;;;6.30;99.90;;;;;;4913348;29;20163;-72
2022/03/02 03:56:36;;;;;;;57.80;31.27;;;6.30;99.90;;;;;;4912905;29;20500;-72
2022/03/02 03:59:03;;;;;;;60.35;31.48;;;6.30;99.90;;;;;;4913199;29;20024;-72
2022/03/02 04:01:28;;;;;;;58.05;32.03;;;6.30;99.90;;;;;;4912977;29;20055;-74
2022/03/02 04:03:54;;;;;;;55.88;31.70;;;6.30;99.90;;;;;;4913243;29;20474;-73
2022/03/02 04:06:20;;;;;;;54.45;31.55;;;6.20;99.90;;;;;;4913261;29;20028;-72
2022/03/02 04:08:46;;;;;;;58.58;31.83;;;6.30;99.90;;;;;;4913308;29;20143;-72
2022/03/02 04:11:12;;;;;;;57.95;31.63;;;6.30;99.90;;;;;;4912944;29;20099;-72
2022/03/02 04:13:38;;;;;;;55.05;30.00;;;6.30;99.90;;;;;;4913029;29;20509;-72
2022/03/02 04:16:04;;;;;;;55.67;31.35;;;6.20;99.90;;;;;;4912316;29;20067;-72
2022/03/02 04:18:33;;;;;;;57.28;30.63;;;6.20;99.90;;;;;;4912836;29;20072;-72
2022/03/02 04:20:59;;;;;;;54.45;30.48;;;6.20;99.90;;;;;;4912966;29;20359;-72
2022/03/02 04:23:25;;;;;;;54.42;30.15;;;6.20;99.90;;;;;;4912960;29;20514;-72
2022/03/02 04:25:51;;;;;;;54.17;29.70;;;6.20;99.90;;;;;;4913111;29;20028;-72
2022/03/02 04:28:17;;;;;;;51.05;29.88;;;6.20;99.90;;;;;;4912954;29;20473;-72
2022/03/02 04:30:43;;;;;;;52.38;29.45;;;6.30;99.90;;;;;;4912579;29;20032;-72
2022/03/02 04:33:08;;;;;;;55.85;29.25;;;6.30;99.90;;;;;;4912900;29;20364;-72
2022/03/02 04:35:34;;;;;;;53.90;31.63;;;6.30;99.90;;;;;;4912845;29;20032;-72
2022/03/02 04:38:01;;;;;;;53.75;29.85;;;6.20;99.90;;;;;;4912967;29;20081;-74
2022/03/02 04:40:26;;;;;;;57.42;30.30;;;6.20;99.90;;;;;;4912792;29;20107;-74
2022/03/02 04:42:54;;;;;;;51.60;29.15;;;6.20;99.90;;;;;;4912690;29;20155;-74
2022/03/02 04:45:20;;;;;;;52.30;30.90;;;6.20;99.90;;;;;;4912739;29;20040;-72
2022/03/02 04:47:46;;;;;;;52.30;30.40;;;6.20;99.90;;;;;;4912891;29;20032;-72
2022/03/02 04:50:12;;;;;;;52.22;29.45;;;6.20;99.90;;;;;;4912594;29;20612;-72
2022/03/02 04:52:38;;;;;;;50.75;29.48;;;6.20;99.90;;;;;;4912631;29;20369;-72
2022/03/02 04:55:07;;;;;;;56.17;29.45;;;6.20;99.90;;;;;;4912677;29;20112;-72
2022/03/02 04:57:50;;;;;;;53.65;28.95;;;6.20;99.90;;;;;;4912435;29;20486;-72
2022/03/02 05:00:19;;;;;;;51.33;28.55;;;6.20;99.90;;;;;;4912539;29;20020;-72
2022/03/02 05:02:45;;;;;;;49.35;27.95;;;6.20;99.90;;;;;;4912632;29;20064;-72
2022/03/02 05:05:13;;;;;;;50.22;28.27;;;6.20;99.90;;;;;;4912868;29;20043;-72
2022/03/02 05:07:40;;;;;;;49.45;28.20;;;6.20;99.90;;;;;;4912537;29;20028;-72
2022/03/02 05:10:07;;;;;;;49.65;28.08;;;6.20;99.90;;;;;;4910963;29;20024;-73
2022/03/02 05:12:33;;;;;;;49.13;28.13;;;6.20;99.90;;;;;;4912569;29;20028;-72
2022/03/02 05:14:58;;;;;;;52.22;27.88;;;6.20;99.90;;;;;;4912465;29;20513;-72
2022/03/02 05:17:24;;;;;;;50.35;28.02;;;6.20;99.90;;;;;;4912676;29;20060;-72
2022/03/02 05:19:50;;;;;;;49.42;28.10;;;6.20;99.90;;;;;;4912558;29;20083;-73
2022/03/02 05:22:15;;;;;;;53.70;28.08;;;6.20;99.90;;;;;;4912353;29;20028;-72
2022/03/02 05:24:42;;;;;;;47.10;27.60;;;6.20;99.90;;;;;;4912784;29;20028;-73
2022/03/02 05:27:08;;;;;;;48.15;27.95;;;6.20;99.90;;;;;;4913631;29;20024;-72
2022/03/02 05:29:35;;;;;;;50.58;28.50;;;6.20;99.90;;;;;;4915776;29;20040;-73
2022/03/02 05:32:00;;;;;;;49.03;27.50;;;6.20;99.90;;;;;;4913720;29;20107;-73
2022/03/02 05:34:26;;;;;;;48.00;27.83;;;6.20;99.90;;;;;;4913998;29;20123;-73
2022/03/02 05:36:52;;;;;;;46.30;27.88;;;6.20;99.90;;;;;;4914169;29;20077;-73
2022/03/02 05:39:17;;;;;;;47.13;26.83;;;6.20;99.90;;;;;;4914663;29;20028;-73
2022/03/02 05:41:43;;;;;;;48.08;27.63;;;6.20;99.90;;;;;;4915013;29;20526;-73
2022/03/02 05:44:09;;;;;;;46.70;27.60;;;6.20;99.90;;;;;;4913685;29;20385;-73
2022/03/02 05:46:35;;;;;;;49.83;26.95;;;6.20;99.90;;;;;;4914405;29;20028;-72
2022/03/02 05:49:02;;;;;;;47.92;26.73;;;6.20;99.90;;;;;;4914627;29;20028;-73
2022/03/02 05:51:28;;;;;;;45.88;27.15;;;6.20;99.90;;;;;;4909594;29;20029;-72
2022/03/02 05:53:53;;;;;;;48.97;27.58;;;6.20;99.90;;;;;;4896133;29;20056;-72
2022/03/02 05:56:19;;;;;;;50.08;27.55;;;6.20;99.90;;;;;;4896536;29;20056;-73
2022/03/02 05:58:45;;;;;;;51.67;28.13;;;6.20;99.90;;;;;;4896429;29;20033;-73
2022/03/02 06:01:10;;;;;;;51.88;28.73;;;6.20;99.90;;;;;;4896255;29;20021;-73
2022/03/02 06:03:36;;;;;;;53.55;29.02;;;6.20;99.90;;;;;;4907493;29;20044;-73
2022/03/02 06:06:02;;;;;;;52.20;28.27;;;6.20;99.90;;;;;;4912012;29;20024;-73
2022/03/02 06:08:27;;;;;;;51.03;28.27;;;6.20;99.90;;;;;;4910721;29;20513;-74
2022/03/02 06:10:53;;;;;;;54.92;28.38;;;6.20;99.90;;;;;;4913648;29;20177;-73
2022/03/02 06:13:19;;;;;;;49.65;25.98;;;6.20;99.90;;;;;;4912217;29;20031;-73
2022/03/02 06:15:46;;;;;;;49.60;28.48;;;6.20;99.90;;;;;;4908299;29;20473;-73
2022/03/02 06:18:12;;;;;;;55.70;28.05;;;6.20;99.90;;;;;;4911084;29;20032;-73
2022/03/02 06:20:38;;;;;;;50.67;28.30;;;6.20;99.90;;;;;;4910467;29;20273;-73
2022/03/02 06:23:04;;;;;;;49.00;27.48;;;6.20;99.90;;;;;;4910801;29;20032;-73
2022/03/02 06:25:30;;;;;;;54.00;27.15;;;6.20;99.90;;;;;;4912481;29;20028;-73
2022/03/02 06:27:55;;;;;;;51.70;27.08;;;6.20;99.90;;;;;;4912945;29;20592;-73
2022/03/02 06:30:21;;;;;;;50.25;27.02;;;6.20;99.90;;;;;;4912791;29;20514;-73
2022/03/02 06:32:47;;;;;;;52.00;27.73;;;6.20;99.90;;;;;;4913881;29;20111;-72
2022/03/02 06:35:12;;;;;;;45.10;26.52;;;6.20;99.90;;;;;;4911876;29;20052;-72
2022/03/02 06:37:38;;;;;;;48.40;26.88;;;6.20;99.90;;;;;;4911707;29;20032;-72
2022/03/02 06:40:07;;;;;;;44.10;25.55;;;6.20;99.90;;;;;;4907906;29;20032;-73
2022/03/02 06:42:45;;;;;;;50.10;26.05;;;6.20;99.90;;;;;;4913369;29;20108;-73
2022/03/02 06:45:15;;;;;;;47.15;26.92;;;6.20;99.90;;;;;;4914318;29;20127;-73
2022/03/02 06:47:56;;;;;;;45.83;25.65;;;6.20;99.90;;;;;;4924295;29;20114;-72
2022/03/02 06:50:25;;;;;;;51.97;27.48;;;6.20;99.90;;;;;;4931201;29;20032;-72
2022/03/02 06:52:54;;;;;;;47.42;26.45;;;6.10;99.90;;;;;;4916902;29;20135;-72
2022/03/02 06:55:20;;;;;;;48.47;25.92;;;6.20;99.90;;;;;;4933111;29;20054;-72
2022/03/02 06:57:52;;;;;;;45.95;26.17;;;6.20;99.90;;;;;;4933643;29;20039;-71
2022/03/02 07:00:17;;;;;;;43.50;24.73;;;6.20;99.90;;;;;;4914064;29;20087;-72
2022/03/02 07:03:14;;;;;;;48.35;26.70;;;6.20;99.90;;;;;;4899723;29;20044;-72
2022/03/02 07:05:40;;;;;;;48.22;25.27;;;6.20;99.90;;;;;;4914330;29;20035;-72
2022/03/02 07:08:08;;;;;;;52.65;25.50;;;6.20;99.90;;;;;;4915501;29;20144;-72
2022/03/02 07:10:35;;;;;;;48.92;26.25;;;6.20;99.90;;;;;;4924529;29;20560;-72
2022/03/02 07:13:03;;;;;;;48.95;25.70;;;6.20;99.90;;;;;;4914061;29;20039;-75
2022/03/02 07:15:33;;;;;;;48.10;24.42;;;6.20;99.90;;;;;;4913872;29;20115;-72
2022/03/02 07:17:59;;;;;;;44.38;25.27;;;6.20;99.90;;;;;;4913982;29;20039;-72
2022/03/02 07:20:27;;;;;;;45.60;24.55;;;6.30;99.90;;;;;;4914151;29;20382;-72
2022/03/02 07:22:54;;;;;;;41.53;24.25;;;6.30;99.90;;;;;;4928372;29;20099;-72
2022/03/02 07:25:26;;;;;;;41.08;23.58;;;6.30;99.90;;;;;;4913681;29;20028;-72
2022/03/02 07:27:55;;;;;;;44.58;24.33;;;6.30;99.90;;;;;;4913685;29;20020;-72
2022/03/02 07:30:21;;;;;;;47.00;23.70;;;6.30;99.90;;;;;;4912634;29;20032;-72
2022/03/02 07:32:47;;;;;;;44.90;23.95;;;6.40;99.90;;;;;;4914344;29;20075;-74
2022/03/02 07:35:16;;;;;;;37.78;21.85;;;6.40;99.90;;;;;;4923610;29;20131;-74
2022/03/02 07:37:46;;;;;;;40.88;23.02;;;6.40;99.90;;;;;;4910510;29;20036;-72
2022/03/02 07:40:12;;;;;;;44.33;23.77;;;6.40;99.90;;;;;;4914231;29;20039;-72
2022/03/02 07:42:39;;;;;;;39.17;22.88;;;6.50;99.90;;;;;;4913929;29;20083;-72
2022/03/02 07:45:06;;;;;;;41.72;23.83;;;6.50;99.90;;;;;;4912892;29;20411;-72
2022/03/02 07:47:32;;;;;;;39.28;22.45;;;6.50;99.90;;;;;;4912149;29;20036;-73
2022/03/02 07:49:58;;;;;;;39.60;23.00;;;6.60;99.90;;;;;;4915662;29;20028;-73
2022/03/02 07:52:27;;;;;;;38.60;22.15;;;6.60;99.90;;;;;;4911015;29;20422;-73
2022/03/02 07:54:57;;;;;;;40.97;22.25;;;6.60;99.90;;;;;;4911392;29;20533;-73
2022/03/02 07:57:24;;;;;;;40.25;21.65;;;6.70;99.90;;;;;;4911156;29;20032;-72
2022/03/02 07:59:52;;;;;;;40.72;22.85;;;6.70;99.90;;;;;;4912207;29;20446;-73
2022/03/02 08:02:20;;;;;;;43.58;22.98;;;6.70;99.90;;;;;;4894331;29;20024;-72
2022/03/02 08:04:51;;;;;;;42.92;22.13;;;6.70;99.90;;;;;;4911375;29;20029;-73
2022/03/02 08:07:17;;;;;;;41.75;22.98;;;6.70;99.90;;;;;;4910912;29;20111;-73
2022/03/02 08:09:43;;;;;;;42.67;22.00;;;6.70;99.90;;;;;;4913518;29;20103;-73
2022/03/02 08:12:10;;;;;;;38.55;21.55;;;6.80;99.90;;;;;;4910700;29;20028;-73
2022/03/02 08:14:36;;;;;;;38.80;21.98;;;6.80;99.90;;;;;;4910496;29;20046;-72
2022/03/02 08:17:03;;;;;;;37.53;21.48;;;6.80;99.90;;;;;;4911190;29;20047;-73
2022/03/02 08:19:30;;;;;;;43.35;22.90;;;6.80;99.90;;;;;;4911406;29;20028;-73
2022/03/02 08:22:01;;;;;;;39.80;22.08;;;6.80;99.90;;;;;;4911033;29;20024;-73
2022/03/02 08:24:27;;;;;;;39.72;20.60;;;6.80;99.90;;;;;;4908743;29;20020;-73
2022/03/02 08:26:57;;;;;;;35.65;20.67;;;6.80;99.90;;;;;;4910981;29;20031;-73
2022/03/02 08:29:26;;;;;;;38.50;21.88;;;6.80;99.90;;;;;;4911766;29;20035;-73
2022/03/02 08:31:57;;;;;;;40.22;21.80;;;6.90;99.90;;;;;;4912217;29;20114;-73
2022/03/02 08:34:23;;;;;;;40.28;21.85;;;6.90;99.90;;;;;;4923774;29;20410;-73
2022/03/02 08:36:50;;;;;;;39.05;21.73;;;6.90;99.90;;;;;;4925835;29;20032;-73
2022/03/02 08:39:15;;;;;;;39.00;21.42;;;6.90;99.90;;;;;;4911466;29;20040;-74
2022/03/02 08:41:41;;;;;;;38.60;21.52;;;6.90;99.90;;;;;;4913137;29;20032;-73
2022/03/02 08:44:08;;;;;;;35.45;21.27;;;7.00;99.90;;;;;;4911659;29;20394;-73
2022/03/02 08:46:34;;;;;;;38.25;20.65;;;7.00;99.90;;;;;;4911067;29;20086;-73
2022/03/02 08:49:00;;;;;;;36.10;20.75;;;7.10;99.90;;;;;;4909041;29;20032;-73
2022/03/02 08:51:27;;;;;;;36.13;21.48;;;7.10;99.90;;;;;;4913601;29;20099;-73
2022/03/02 08:53:55;;;;;;;39.03;20.45;;;7.20;99.90;;;;;;4920543;29;20192;-73
2022/03/02 08:56:21;;;;;;;38.15;21.75;;;7.20;99.90;;;;;;4894416;29;20035;-74
2022/03/02 08:58:47;;;;;;;38.28;21.52;;;7.30;99.90;;;;;;4910335;29;20040;-73
2022/03/02 09:01:14;;;;;;;37.70;20.05;;;7.40;99.90;;;;;;4913298;29;20028;-73
2022/03/02 09:03:48;;;;;;;34.25;20.23;;;7.50;99.90;;;;;;4915071;29;20414;-73
2022/03/02 09:06:17;;;;;;;32.47;19.27;;;7.60;99.90;;;;;;4913689;29;20068;-74
2022/03/02 09:08:42;;;;;;;32.53;19.85;;;7.70;99.90;;;;;;4915423;29;20039;-74
2022/03/02 09:11:08;;;;;;;38.00;20.10;;;7.80;99.90;;;;;;4914502;29;20079;-74
2022/03/02 09:13:38;;;;;;;36.53;19.88;;;8.00;99.90;;;;;;4914587;29;20501;-73
2022/03/02 09:16:10;;;;;;;33.83;19.92;;;8.00;99.90;;;;;;4915428;29;20032;-77
2022/03/02 09:18:36;;;;;;;36.28;19.88;;;8.20;99.90;;;;;;4915018;29;20068;-73
2022/03/02 09:21:04;;;;;;;34.50;18.90;;;8.30;99.90;;;;;;4914989;29;20200;-73
2022/03/02 09:23:34;;;;;;;37.38;19.52;;;8.40;99.90;;;;;;4918843;29;20051;-74
2022/03/02 09:26:08;;;;;;;33.10;18.50;;;8.50;99.90;;;;;;4913882;29;20103;-73
2022/03/02 09:28:36;;;;;;;29.55;17.45;;;8.60;99.90;;;;;;4914678;29;20043;-74
2022/03/02 09:31:07;;;;;;;30.60;18.65;;;8.70;99.90;;;;;;4922524;29;20505;-73
2022/03/02 09:33:35;;;;;;;31.77;17.92;;;8.70;99.90;;;;;;4916313;29;20036;-74
2022/03/02 09:36:06;;;;;;;30.13;18.02;;;8.80;99.90;;;;;;4914669;29;20031;-74
2022/03/02 09:38:33;;;;;;;33.35;19.00;;;8.90;99.90;;;;;;4914019;29;20509;-74
2022/03/02 09:41:07;;;;;;;32.28;18.00;;;9.00;99.90;;;;;;4915227;29;20055;-74
2022/03/02 09:43:35;;;;;;;33.97;18.90;;;9.10;99.90;;;;;;4913372;29;20028;-74
2022/03/02 09:46:04;;;;;;;33.22;18.77;;;9.20;99.90;;;;;;4913791;29;20025;-74
2022/03/02 09:48:35;;;;;;;32.50;18.90;;;9.30;99.90;;;;;;4913733;29;20024;-73
2022/03/02 09:51:05;;;;;;;35.95;17.95;;;9.40;99.90;;;;;;4918203;29;20024;-74
2022/03/02 09:53:32;;;;;;;29.30;17.75;;;9.50;99.90;;;;;;4912700;29;20095;-73
2022/03/02 09:56:03;;;;;;;29.20;17.27;;;9.60;99.90;;;;;;4911252;29;20379;-73
2022/03/02 09:58:29;;;;;;;25.95;15.68;;;9.70;99.90;;;;;;4913345;29;20028;-74
2022/03/02 10:00:56;;;;;;;30.90;16.73;;;9.80;99.90;;;;;;4912811;29;20046;-74
2022/03/02 10:03:30;;;;;;;28.58;16.42;;;9.80;99.90;;;;;;4913719;29;20028;-74
2022/03/02 10:06:04;;;;;;;28.92;16.88;;;9.80;99.90;;;;;;4913699;29;20048;-74
2022/03/02 10:08:33;;;;;;;26.55;15.80;;;9.90;99.90;;;;;;4915069;29;20036;-74
2022/03/02 10:11:03;;;;;;;28.77;16.77;;;10.00;99.90;;;;;;4914411;29;20091;-74
2022/03/02 10:13:29;;;;;;;31.10;16.35;;;10.00;97.40;;;;;;4912116;29;20090;-73
2022/03/02 10:15:57;;;;;;;31.08;16.35;;;10.00;97.60;;;;;;4913089;29;20031;-74
2022/03/02 10:18:26;;;;;;;27.45;16.17;;;10.00;96.90;;;;;;4916028;29;20342;-74
2022/03/02 10:20:58;;;;;;;32.47;17.80;;;10.00;96.30;;;;;;4914253;29;20335;-74
2022/03/02 10:23:33;;;;;;;30.48;16.42;;;10.00;96.60;;;;;;4910928;29;20115;-74
2022/03/02 10:26:15;;;;;;;30.98;16.92;;;10.10;96.60;;;;;;4918161;29;20482;-74
2022/03/02 10:29:29;;;;;;;28.05;17.00;;;10.20;95.80;;;;;;4912914;29;20026;-74
2022/03/02 10:32:05;;;;;;;29.92;17.33;;;10.20;96.30;;;;;;4882693;29;20443;-74
2022/03/02 10:34:37;;;;;;;27.42;16.52;;;10.30;96.30;;;;;;4873688;29;20060;-74
2022/03/02 10:37:02;;;;;;;27.92;16.60;;;10.40;95.90;;;;;;4883433;29;20123;-74
2022/03/02 10:39:56;;;;;;;28.73;16.75;;;10.50;95.50;;;;;;4874070;29;20060;-74
2022/03/02 10:42:30;;;;;;;27.88;16.15;;;10.60;93.50;;;;;;4873977;29;20041;-74
2022/03/02 10:45:08;;;;;;;30.08;16.73;;;10.70;93.90;;;;;;4890009;29;20073;-72
2022/03/02 10:47:41;;;;;;;32.85;17.20;;;10.80;94.20;;;;;;4882444;29;20037;-72
2022/03/02 10:50:08;;;;;;;30.70;17.38;;;10.80;94.00;;;;;;4874051;29;20096;-73
2022/03/02 10:52:38;;;;;;;27.48;16.50;;;11.00;93.50;;;;;;4867878;29;20093;-73
2022/03/02 10:55:07;;;;;;;29.70;17.05;;;11.00;93.20;;;;;;4873381;29;20451;-73
2022/03/02 10:57:34;;;;;;;28.17;17.38;;;11.10;91.90;;;;;;4873774;29;20048;-72
2022/03/02 11:00:13;;;;;;;29.73;16.98;;;11.10;91.80;;;;;;4873655;29;20032;-73
2022/03/02 11:02:42;;;;;;;26.25;16.45;;;11.20;91.60;;;;;;4893618;29;20036;-73
2022/03/02 11:05:13;;;;;;;27.65;16.70;;;11.20;91.10;;;;;;4928596;29;20144;-72
2022/03/02 11:07:41;;;;;;;28.45;16.30;;;11.20;90.70;;;;;;4913241;29;20058;-72
2022/03/02 11:10:10;;;;;;;28.40;16.85;;;11.20;90.80;;;;;;4912547;29;20051;-72
2022/03/02 11:12:41;;;;;;;29.63;17.42;;;11.30;88.50;;;;;;4919102;29;20406;-73
2022/03/02 11:15:07;;;;;;;30.23;16.98;;;11.30;89.90;;;;;;4914751;29;20039;-73
2022/03/02 11:17:33;;;;;;;31.05;17.60;;;11.40;90.10;;;;;;4912481;29;20403;-72
2022/03/02 11:20:08;;;;;;;30.65;17.55;;;11.40;88.70;;;;;;4913291;29;20031;-73
2022/03/02 11:22:34;;;;;;;29.55;16.83;;;11.50;89.70;;;;;;4930629;29;20036;-72
2022/03/02 11:25:00;;;;;;;27.20;16.58;;;11.60;88.80;;;;;;4927057;29;20043;-73
2022/03/02 11:27:27;;;;;;;30.15;17.65;;;11.60;88.10;;;;;;4915633;29;20167;-73
2022/03/02 11:30:16;;;;;;;27.90;16.98;;;11.70;88.40;;;;;;4913517;29;20044;-73
2022/03/02 11:32:47;;;;;;;34.08;18.17;;;11.80;88.30;;;;;;4913393;29;20055;-72
2022/03/02 11:35:18;;;;;;;31.27;17.85;;;11.80;87.30;;;;;;4914829;29;20028;-73
2022/03/02 11:37:43;;;;;;;29.88;16.67;;;11.80;87.50;;;;;;4912494;29;20386;-73
2022/03/02 11:40:12;;;;;;;34.15;19.13;;;11.80;86.10;;;;;;4911562;29;20032;-73
2022/03/02 11:42:40;;;;;;;31.45;18.02;;;11.80;85.60;;;;;;4911779;29;20020;-73
2022/03/02 11:45:08;;;;;;;31.23;17.25;;;11.80;85.70;;;;;;4912500;29;20032;-73
2022/03/02 11:47:38;;;;;;;29.30;17.30;;;11.80;85.30;;;;;;4911718;29;20036;-73
2022/03/02 11:50:08;;;;;;;29.23;17.00;;;11.80;86.10;;;;;;4909117;29;20529;-72
2022/03/02 11:52:36;;;;;;;32.47;17.85;;;11.90;84.40;;;;;;4911691;29;20098;-73
2022/03/02 11:55:09;;;;;;;29.90;18.27;;;11.90;83.10;;;;;;4912100;29;20040;-73
2022/03/02 11:57:47;;;;;;;31.20;18.05;;;11.90;83.40;;;;;;4912006;29;20043;-73
2022/03/02 12:00:19;;;;;;;31.23;18.35;;;11.90;83.70;;;;;;4911367;29;20111;-73
2022/03/02 12:02:49;;;;;;;30.58;17.85;;;11.90;83.70;;;;;;4911464;29;20024;-73
2022/03/02 12:05:17;;;;;;;30.75;18.02;;;12.00;84.70;;;;;;4912840;29;20059;-73
2022/03/02 12:07:48;;;;;;;35.85;17.63;;;12.00;83.90;;;;;;4912168;29;20044;-73
2022/03/02 12:10:15;;;;;;;33.80;18.45;;;12.10;82.20;;;;;;4911744;29;20044;-73
2022/03/02 12:12:41;;;;;;;27.38;17.60;;;12.10;81.30;;;;;;4911285;29;20043;-73
2022/03/02 12:15:07;;;;;;;32.33;17.75;;;12.20;82.00;;;;;;4930508;29;20094;-73
2022/03/02 12:17:33;;;;;;;28.73;17.23;;;12.20;81.40;;;;;;4924283;29;20083;-73
2022/03/02 12:20:13;;;;;;;28.65;16.85;;;12.20;80.40;;;;;;4912316;29;20032;-73
2022/03/02 12:22:42;;;;;;;29.75;17.45;;;12.30;79.70;;;;;;4911178;29;20048;-73
2022/03/02 12:25:13;;;;;;;28.67;16.38;;;12.30;79.70;;;;;;4919360;29;20027;-74
2022/03/02 12:27:41;;;;;;;28.80;17.67;;;12.30;79.00;;;;;;4911441;29;20119;-73
2022/03/02 12:30:10;;;;;;;28.45;15.20;;;12.30;79.90;;;;;;4912200;29;20020;-73
2022/03/02 12:32:42;;;;;;;28.48;16.70;;;12.40;80.40;;;;;;4911454;29;20515;-73
2022/03/02 12:35:10;;;;;;;28.75;16.63;;;12.50;80.00;;;;;;4913093;29;20490;-73
2022/03/02 12:37:36;;;;;;;30.33;16.88;;;12.60;79.70;;;;;;4920222;29;20043;-73